createdAt,value
2019-04-11T00:02:08.833Z,5.00
2019-04-11T00:04:38.014Z,5.00
2019-04-11T00:07:05.896Z,5.10
2019-04-11T00:09:32.614Z,5.10
2019-04-11T00:11:59.962Z,5.00
2019-04-11T00:14:27.517Z,5.00
2019-04-11T00:16:53.890Z,5.00
2019-04-11T00:19:21.157Z,5.00
2019-04-11T00:21:47.530Z,4.90
2019-04-11T00:24:14.450Z,4.90
2019-04-11T00:26:40.895Z,4.90
2019-04-11T00:29:07.215Z,5.00
2019-04-11T00:31:33.760Z,5.00
2019-04-11T00:34:00.045Z,4.90
2019-04-11T00:36:26.326Z,4.90
2019-04-11T00:38:52.608Z,4.90
2019-04-11T00:41:18.865Z,4.90
2019-04-11T00:43:45.749Z,4.90
2019-04-11T00:46:13.181Z,4.90
2019-04-11T00:48:39.825Z,4.90
2019-04-11T00:51:06.119Z,4.90
2019-04-11T00:53:32.365Z,4.80
2019-04-11T00:55:59.796Z,4.80
2019-04-11T00:58:26.318Z,4.70
2019-04-11T01:00:53.491Z,4.80
2019-04-11T01:03:20.163Z,4.80
2019-04-11T01:05:47.749Z,4.80
2019-04-11T01:08:15.646Z,4.80
2019-04-11T01:10:43.314Z,4.80
2019-04-11T01:13:11.259Z,4.80
2019-04-11T01:15:40.688Z,4.70
2019-04-11T01:18:07.106Z,4.70
2019-04-11T01:20:33.519Z,4.70
2019-04-11T01:23:00.247Z,4.70
2019-04-11T01:25:26.529Z,4.70
2019-04-11T01:27:52.998Z,4.70
2019-04-11T01:30:22.854Z,4.70
2019-04-11T01:32:49.244Z,4.70
2019-04-11T01:35:15.485Z,4.60
2019-04-11T01:37:41.985Z,4.60
2019-04-11T01:40:11.782Z,4.70
2019-04-11T01:42:38.205Z,4.70
2019-04-11T01:45:07.340Z,4.70
2019-04-11T01:47:44.868Z,4.70
2019-04-11T01:50:12.799Z,4.70
2019-04-11T01:52:39.475Z,4.80
2019-04-11T01:55:08.252Z,4.70
2019-04-11T01:57:36.064Z,4.70
2019-04-11T02:00:04.166Z,4.70
2019-04-11T02:02:35.359Z,4.70
2019-04-11T02:05:20.942Z,4.70
2019-04-11T02:07:47.619Z,4.70
2019-04-11T02:10:14.788Z,4.70
2019-04-11T02:12:41.544Z,4.70
2019-04-11T02:15:08.389Z,4.70
2019-04-11T02:17:34.933Z,4.70
2019-04-11T02:20:02.730Z,4.60
2019-04-11T02:22:38.181Z,4.70
2019-04-11T02:25:14.190Z,4.60
2019-04-11T02:27:42.296Z,4.60
2019-04-11T02:30:11.183Z,4.50
2019-04-11T02:32:40.212Z,4.50
2019-04-11T02:35:07.792Z,4.50
2019-04-11T02:37:35.412Z,4.60
2019-04-11T02:40:03.256Z,4.60
2019-04-11T02:42:30.729Z,4.50
2019-04-11T02:45:13.882Z,4.50
2019-04-11T02:47:30.818Z,4.50
2019-04-11T02:49:55.047Z,4.50
2019-04-11T02:52:22.929Z,4.50
2019-04-11T02:54:49.948Z,4.60
2019-04-11T02:57:16.978Z,4.50
2019-04-11T02:59:46.762Z,4.50
2019-04-11T03:02:16.437Z,4.50
2019-04-11T03:04:41.782Z,4.40
2019-04-11T03:07:09.926Z,4.40
2019-04-11T03:09:37.487Z,4.40
2019-04-11T03:12:05.185Z,4.50
2019-04-11T03:14:46.078Z,4.40
2019-04-11T03:17:12.011Z,4.50
2019-04-11T03:19:42.213Z,4.50
2019-04-11T03:22:01.593Z,4.50
2019-04-11T03:24:29.442Z,4.50
2019-04-11T03:27:00.188Z,4.40
2019-04-11T03:29:26.729Z,4.40
2019-04-11T03:35:09.531Z,4.40
2019-04-11T03:37:23.548Z,4.40
2019-04-11T03:39:45.758Z,4.30
2019-04-11T03:42:15.845Z,4.20
2019-04-11T03:44:31.440Z,4.40
2019-04-11T03:47:11.251Z,4.30
2019-04-11T03:49:31.643Z,4.40
2019-04-11T03:51:50.693Z,4.40
2019-04-11T03:54:18.019Z,4.40
2019-04-11T03:56:45.806Z,4.40
2019-04-11T03:59:19.541Z,4.40
2019-04-11T04:01:48.748Z,4.30
2019-04-11T04:04:16.892Z,4.20
2019-04-11T04:06:44.023Z,4.20
2019-04-11T04:09:13.109Z,4.20
2019-04-11T04:11:42.768Z,4.20
2019-04-11T04:14:15.017Z,4.20
2019-04-11T04:16:48.297Z,4.30
2019-04-11T04:19:31.040Z,4.20
2019-04-11T04:22:13.364Z,4.10
2019-04-11T04:24:42.349Z,4.10
2019-04-11T04:27:11.306Z,3.90
2019-04-11T04:29:38.105Z,3.80
2019-04-11T04:32:05.462Z,3.80
2019-04-11T04:34:33.798Z,3.70
2019-04-11T04:37:01.231Z,3.70
2019-04-11T04:39:29.226Z,3.80
2019-04-11T04:42:03.637Z,3.70
2019-04-11T04:44:26.441Z,3.70
2019-04-11T04:47:05.584Z,3.70
2019-04-11T04:49:21.418Z,3.80
2019-04-11T04:51:47.898Z,3.70
2019-04-11T04:54:24.084Z,3.70
2019-04-11T04:56:52.433Z,3.70
2019-04-11T04:59:19.649Z,3.70
2019-04-11T05:01:48.312Z,3.80
2019-04-11T05:04:15.924Z,3.80
2019-04-11T05:06:46.710Z,3.90
2019-04-11T05:09:10.857Z,3.90
2019-04-11T05:11:38.293Z,3.80
2019-04-11T05:14:05.292Z,3.80
2019-04-11T05:16:33.346Z,3.90
2019-04-11T05:19:00.807Z,3.90
2019-04-11T05:21:27.659Z,3.90
2019-04-11T05:23:55.183Z,3.90
2019-04-11T05:26:22.254Z,3.90
2019-04-11T05:28:48.829Z,3.80
2019-04-11T05:31:18.559Z,3.80
2019-04-11T05:33:45.649Z,3.90
2019-04-11T05:36:14.339Z,3.70
2019-04-11T05:38:42.154Z,3.70
2019-04-11T05:41:12.261Z,3.70
2019-04-11T05:43:39.799Z,3.80
2019-04-11T05:46:23.280Z,3.80
2019-04-11T05:48:48.728Z,3.90
2019-04-11T05:51:19.577Z,3.90
2019-04-11T05:53:43.754Z,4.00
2019-04-11T05:56:11.230Z,3.90
2019-04-11T05:58:45.121Z,4.00
2019-04-11T06:01:11.797Z,4.00
2019-04-11T06:03:39.951Z,4.00
2019-04-11T06:06:08.643Z,4.00
2019-04-11T06:08:35.717Z,4.10
2019-04-11T06:11:05.767Z,4.10
2019-04-11T06:13:36.912Z,4.20
2019-04-11T06:16:04.538Z,4.20
2019-04-11T06:18:52.197Z,4.20
2019-04-11T06:21:26.675Z,4.10
2019-04-11T06:24:12.052Z,4.20
2019-04-11T06:27:00.278Z,4.30
2019-04-11T06:29:41.573Z,4.40
2019-04-11T06:32:09.816Z,4.40
2019-04-11T06:34:38.056Z,4.50
2019-04-11T06:37:19.282Z,4.60
2019-04-11T06:39:54.552Z,4.60
2019-04-11T06:42:25.622Z,4.70
2019-04-11T06:45:11.264Z,4.70
2019-04-11T06:47:49.222Z,4.70
2019-04-11T06:50:20.094Z,4.70
2019-04-11T06:52:46.420Z,4.80
2019-04-11T06:55:31.454Z,4.80
2019-04-11T06:58:00.489Z,4.90
2019-04-11T07:00:28.002Z,4.90
2019-04-11T07:03:05.627Z,4.90
2019-04-11T07:05:35.343Z,4.90
2019-04-11T07:08:03.460Z,4.90
2019-04-11T07:10:31.621Z,4.90
2019-04-11T07:13:00.670Z,4.90
2019-04-11T07:15:29.386Z,4.90
2019-04-11T07:18:14.702Z,4.90
2019-04-11T07:20:43.588Z,5.00
2019-04-11T07:23:30.705Z,5.10
2019-04-11T07:26:00.213Z,5.00
2019-04-11T07:28:41.652Z,5.00
2019-04-11T07:31:21.606Z,5.10
2019-04-11T07:34:02.579Z,5.10
2019-04-11T07:36:48.385Z,5.10
2019-04-11T07:39:24.499Z,5.10
2019-04-11T07:42:00.183Z,5.10
2019-04-11T07:44:30.202Z,5.20
2019-04-11T07:47:12.930Z,5.20
2019-04-11T07:49:37.215Z,5.10
2019-04-11T07:52:15.538Z,5.10
2019-04-11T07:54:43.258Z,5.30
2019-04-11T07:57:12.791Z,5.30
2019-04-11T07:59:43.895Z,5.40
2019-04-11T08:02:28.981Z,5.40
2019-04-11T08:04:57.682Z,5.60
2019-04-11T08:07:35.238Z,5.70
2019-04-11T08:10:10.286Z,5.80
2019-04-11T08:12:37.338Z,5.80
2019-04-11T08:15:23.808Z,5.70
2019-04-11T08:17:50.163Z,5.80
2019-04-11T08:20:25.525Z,5.70
2019-04-11T08:22:54.964Z,6.00
2019-04-11T08:25:35.548Z,6.00
2019-04-11T08:28:05.931Z,6.10
2019-04-11T08:30:40.124Z,6.20
2019-04-11T08:33:09.082Z,6.30
2019-04-11T08:35:37.372Z,6.30
2019-04-11T08:38:08.101Z,6.40
2019-04-11T08:40:36.235Z,6.70
2019-04-11T08:43:07.262Z,6.80
2019-04-11T08:45:38.219Z,6.90
2019-04-11T08:48:06.575Z,7.00
2019-04-11T08:50:43.555Z,6.90
2019-04-11T08:53:12.789Z,6.80
2019-04-11T08:55:49.708Z,6.80
2019-04-11T08:58:12.057Z,6.70
2019-04-11T09:00:43.609Z,6.70
2019-04-11T09:03:15.593Z,6.50
2019-04-11T09:05:49.829Z,6.50
2019-04-11T09:08:30.219Z,6.50
2019-04-11T09:11:04.636Z,6.50
2019-04-11T09:13:33.692Z,6.50
2019-04-11T09:16:15.219Z,6.60
2019-04-11T09:18:43.947Z,6.80
2019-04-11T09:21:28.599Z,7.00
2019-04-11T09:23:55.002Z,7.00
2019-04-11T09:26:41.000Z,6.90
2019-04-11T09:29:08.285Z,6.70
2019-04-11T09:31:43.720Z,6.50
2019-04-11T09:34:13.286Z,6.30
2019-04-11T09:36:47.337Z,6.50
2019-04-11T09:39:19.264Z,6.60
2019-04-11T09:41:50.939Z,6.70
2019-04-11T09:44:20.300Z,6.70
2019-04-11T09:46:48.873Z,6.50
2019-04-11T09:49:20.506Z,6.60
2019-04-11T09:51:51.992Z,6.70
2019-04-11T09:54:20.166Z,6.70
2019-04-11T09:56:54.421Z,6.70
2019-04-11T09:59:25.399Z,6.70
2019-04-11T10:02:05.931Z,6.80
2019-04-11T10:04:36.046Z,6.80
2019-04-11T10:07:21.724Z,6.80
2019-04-11T10:10:02.587Z,6.90
2019-04-11T10:12:40.513Z,7.00
2019-04-11T10:15:09.349Z,7.10
2019-04-11T10:17:42.343Z,7.10
2019-04-11T10:20:20.354Z,7.20
2019-04-11T10:22:52.241Z,7.10
2019-04-11T10:25:23.506Z,7.20
2019-04-11T10:28:09.223Z,7.20
2019-04-11T10:30:41.909Z,7.10
2019-04-11T10:33:13.187Z,7.10
2019-04-11T10:35:50.368Z,7.20
2019-04-11T10:38:18.571Z,7.30
2019-04-11T10:40:50.350Z,7.30
2019-04-11T10:43:18.409Z,7.40
2019-04-11T10:45:51.011Z,7.40
2019-04-11T10:48:21.161Z,7.40
2019-04-11T10:50:56.179Z,7.40
2019-04-11T10:53:22.888Z,7.40
2019-04-11T10:55:51.730Z,7.50
2019-04-11T10:58:20.579Z,7.50
2019-04-11T11:00:48.857Z,7.40
2019-04-11T11:03:22.823Z,7.40
2019-04-11T11:06:01.035Z,7.20
2019-04-11T11:08:29.304Z,7.20
2019-04-11T11:10:57.752Z,7.40
2019-04-11T11:13:40.935Z,7.50
2019-04-11T11:16:08.923Z,7.40
2019-04-11T11:19:03.441Z,7.50
2019-04-11T11:21:07.067Z,7.50
2019-04-11T11:23:37.187Z,7.50
2019-04-11T11:26:09.036Z,7.50
2019-04-11T11:28:54.194Z,7.40
2019-04-11T11:31:40.803Z,7.10
2019-04-11T11:34:17.372Z,7.10
2019-04-11T11:36:48.118Z,7.10
2019-04-11T11:39:19.355Z,7.00
2019-04-11T11:42:04.209Z,7.10
2019-04-11T11:44:32.967Z,7.00
2019-04-11T11:47:10.093Z,7.00
2019-04-11T11:49:45.851Z,6.90
2019-04-11T11:52:09.288Z,6.90
2019-04-11T11:54:37.738Z,6.90
2019-04-11T11:57:06.652Z,6.90
2019-04-11T11:59:34.938Z,7.00
2019-04-11T12:02:06.488Z,6.90
2019-04-11T12:04:37.211Z,6.80
2019-04-11T12:07:05.984Z,6.90
2019-04-11T12:09:50.886Z,7.00
2019-04-11T12:12:35.857Z,7.00
2019-04-11T12:15:22.831Z,7.10
2019-04-11T12:18:01.801Z,7.10
2019-04-11T12:20:32.801Z,7.00
2019-04-11T12:23:01.304Z,7.10
2019-04-11T12:25:29.795Z,7.10
2019-04-11T12:28:00.743Z,7.10
2019-04-11T12:33:05.629Z,7.20
2019-04-11T12:35:44.403Z,7.30
2019-04-11T12:38:12.623Z,7.20
2019-04-11T12:40:57.603Z,7.40
2019-04-11T12:43:25.730Z,7.40
2019-04-11T12:45:54.213Z,7.40
2019-04-11T12:48:22.051Z,7.30
2019-04-11T12:50:55.990Z,7.50
2019-04-11T12:53:22.272Z,7.40
2019-04-11T12:55:50.789Z,7.30
2019-04-11T12:58:21.886Z,7.30
2019-04-11T13:00:52.783Z,7.40
2019-04-11T13:03:33.218Z,7.40
2019-04-11T13:06:01.351Z,7.40
2019-04-11T13:08:47.427Z,7.20
2019-04-11T13:11:15.867Z,7.10
2019-04-11T13:13:46.834Z,7.10
2019-04-11T13:16:14.474Z,7.10
2019-04-11T13:18:59.570Z,7.20
2019-04-11T13:21:27.834Z,7.20
2019-04-11T13:23:55.986Z,7.30
2019-04-11T13:26:40.496Z,7.30
2019-04-11T13:29:25.627Z,7.30
2019-04-11T13:31:53.787Z,7.40
2019-04-11T13:34:21.982Z,7.10
2019-04-11T13:36:50.093Z,7.00
2019-04-11T13:39:16.439Z,7.00
2019-04-11T13:41:50.985Z,7.10
2019-04-11T13:44:17.218Z,7.00
2019-04-11T13:46:45.821Z,6.90
2019-04-11T13:49:22.994Z,6.90
2019-04-11T13:52:07.769Z,7.00
2019-04-11T13:54:45.045Z,7.10
2019-04-11T13:57:28.596Z,7.10
2019-04-11T14:00:05.800Z,7.10
2019-04-11T14:02:50.943Z,7.20
2019-04-11T14:05:21.413Z,7.20
2019-04-11T14:07:49.038Z,7.10
2019-04-11T14:10:16.905Z,6.90
2019-04-11T14:12:43.163Z,6.90
2019-04-11T14:15:11.431Z,7.00
2019-04-11T14:17:42.646Z,7.10
2019-04-11T14:20:14.797Z,7.10
2019-04-11T14:22:59.777Z,7.10
2019-04-11T14:25:46.164Z,6.90
2019-04-11T14:28:14.320Z,6.70
2019-04-11T14:30:46.675Z,6.70
2019-04-11T14:33:13.671Z,6.80
2019-04-11T14:35:41.854Z,6.90
2019-04-11T14:38:13.041Z,6.90
2019-04-11T14:41:00.963Z,6.90
2019-04-11T14:43:26.100Z,6.90
2019-04-11T14:45:54.215Z,7.00
2019-04-11T14:48:22.388Z,7.00
2019-04-11T14:50:59.426Z,7.10
2019-04-11T14:53:30.375Z,7.10
2019-04-11T14:56:05.026Z,7.20
2019-04-11T14:58:53.558Z,7.20
2019-04-11T15:01:20.427Z,7.10
2019-04-11T15:03:48.596Z,7.00
2019-04-11T15:06:16.739Z,7.00
2019-04-11T15:08:48.149Z,7.00
2019-04-11T15:11:22.040Z,7.00
2019-04-11T15:13:50.168Z,7.00
2019-04-11T15:16:30.674Z,7.00
2019-04-11T15:18:58.806Z,7.00
2019-04-11T15:21:43.993Z,7.00
2019-04-11T15:24:10.759Z,7.00
2019-04-11T15:26:48.216Z,7.00
2019-04-11T15:29:16.067Z,7.00
2019-04-11T15:31:53.016Z,6.80
2019-04-11T15:34:36.167Z,6.80
2019-04-11T15:37:20.898Z,6.80
2019-04-11T15:40:00.819Z,6.90
2019-04-11T15:42:31.973Z,6.90
2019-04-11T15:45:03.155Z,6.90
2019-04-11T15:47:30.400Z,6.90
2019-04-11T15:50:15.763Z,6.70
2019-04-11T15:52:44.235Z,6.80
2019-04-11T15:55:29.275Z,6.70
2019-04-11T15:57:55.580Z,6.80
2019-04-11T16:00:26.451Z,6.80
2019-04-11T16:02:54.997Z,6.70
2019-04-11T16:05:40.055Z,6.60
2019-04-11T16:08:17.341Z,6.60
2019-04-11T16:10:45.473Z,6.60
2019-04-11T16:13:20.121Z,6.50
2019-04-11T16:15:51.686Z,6.50
2019-04-11T16:18:19.847Z,6.40
2019-04-11T16:20:50.792Z,6.50
2019-04-11T16:23:26.148Z,6.40
2019-04-11T16:25:52.532Z,6.50
2019-04-11T16:28:20.675Z,6.50
2019-04-11T16:30:48.502Z,6.40
2019-04-11T16:33:19.454Z,6.50
2019-04-11T16:35:56.918Z,6.50
2019-04-11T16:38:24.384Z,6.50
2019-04-11T16:40:53.497Z,6.50
2019-04-11T16:43:24.131Z,6.50
2019-04-11T16:45:54.877Z,6.40
2019-04-11T16:48:25.346Z,6.40
2019-04-11T16:50:50.157Z,6.40
2019-04-11T16:53:16.386Z,6.50
2019-04-11T16:55:43.644Z,6.50
2019-04-11T16:58:10.006Z,6.50
2019-04-11T17:00:36.372Z,6.40
2019-04-11T17:03:03.010Z,6.40
2019-04-11T17:05:29.368Z,6.30
2019-04-11T17:08:06.611Z,6.30
2019-04-11T17:10:51.495Z,6.30
2019-04-11T17:13:17.815Z,6.40
2019-04-11T17:15:44.160Z,6.50
2019-04-11T17:18:10.538Z,6.40
2019-04-11T17:20:39.570Z,6.30
2019-04-11T17:23:04.843Z,6.30
2019-04-11T17:25:31.100Z,6.40
2019-04-11T17:27:57.404Z,6.30
2019-04-11T17:30:24.730Z,6.40
2019-04-11T17:32:55.550Z,6.40
2019-04-11T17:35:20.739Z,6.30
2019-04-11T17:37:47.003Z,6.30
2019-04-11T17:40:13.847Z,6.30
2019-04-11T17:42:43.841Z,6.20
2019-04-11T17:45:08.363Z,6.20
2019-04-11T17:47:34.739Z,6.30
2019-04-11T17:50:04.194Z,6.30
2019-04-11T17:52:29.186Z,6.30
2019-04-11T17:54:55.471Z,6.30
2019-04-11T17:57:22.013Z,6.30
2019-04-11T17:59:48.791Z,6.30
2019-04-11T18:02:15.082Z,6.20
2019-04-11T18:04:43.694Z,6.30
2019-04-11T18:07:09.402Z,6.30
2019-04-11T18:09:35.653Z,6.20
2019-04-11T18:12:01.890Z,6.20
2019-04-11T18:14:30.951Z,6.20
2019-04-11T18:17:03.601Z,6.10
2019-04-11T18:19:27.039Z,6.10
2019-04-11T18:21:53.302Z,6.20
2019-04-11T18:24:19.934Z,6.10
2019-04-11T18:26:46.915Z,6.10
2019-04-11T18:29:13.548Z,6.10
2019-04-11T18:31:39.812Z,6.10
2019-04-11T18:34:06.026Z,6.00
2019-04-11T18:36:32.578Z,5.90
2019-04-11T18:39:02.020Z,5.80
2019-04-11T18:41:27.249Z,5.80
2019-04-11T18:43:53.515Z,5.80
2019-04-11T18:46:19.871Z,5.90
2019-04-11T18:48:46.129Z,5.90
2019-04-11T18:51:12.765Z,5.90
2019-04-11T18:53:39.431Z,5.80
2019-04-11T18:56:06.245Z,5.90
2019-04-11T18:58:34.439Z,5.90
2019-04-11T19:01:00.940Z,5.80
2019-04-11T19:03:36.043Z,5.80
2019-04-11T19:05:56.573Z,5.90
2019-04-11T19:08:23.153Z,5.90
2019-04-11T19:10:49.743Z,5.90
2019-04-11T19:13:16.974Z,5.80
2019-04-11T19:15:45.791Z,5.70
2019-04-11T19:18:15.893Z,5.70
2019-04-11T19:20:40.765Z,5.70
2019-04-11T19:23:07.937Z,5.70
2019-04-11T19:25:34.888Z,5.80
2019-04-11T19:28:01.180Z,5.70
2019-04-11T19:30:27.452Z,5.70
2019-04-11T19:32:53.712Z,5.70
2019-04-11T19:35:19.990Z,5.60
2019-04-11T19:37:46.243Z,5.60
2019-04-11T19:40:16.113Z,5.70
2019-04-11T19:42:41.403Z,5.70
2019-04-11T19:45:08.556Z,5.60
2019-04-11T19:47:34.951Z,5.60
2019-04-11T19:50:01.324Z,5.70
2019-04-11T19:52:29.916Z,5.70
2019-04-11T19:54:58.946Z,5.70
2019-04-11T19:57:25.543Z,5.70
2019-04-11T19:59:51.811Z,5.70
2019-04-11T20:02:18.142Z,5.70
2019-04-11T20:04:46.534Z,5.60
2019-04-11T20:07:12.458Z,5.60
2019-04-11T20:09:39.028Z,5.60
2019-04-11T20:12:05.649Z,5.70
2019-04-11T20:14:34.047Z,5.70
2019-04-11T20:17:00.616Z,5.60
2019-04-11T20:19:27.979Z,5.60
2019-04-11T20:21:54.716Z,5.70
2019-04-11T20:24:21.350Z,5.60
2019-04-11T20:26:50.171Z,5.70
2019-04-11T20:29:16.267Z,5.70
2019-04-11T20:31:42.495Z,5.60
2019-04-11T20:34:08.997Z,5.60
2019-04-11T20:36:35.869Z,5.50
2019-04-11T20:39:05.310Z,5.50
2019-04-11T20:41:31.535Z,5.40
2019-04-11T20:43:58.113Z,5.50
2019-04-11T20:46:28.871Z,5.40
2019-04-11T20:48:54.576Z,5.50
2019-04-11T20:51:20.463Z,5.50
2019-04-11T20:53:46.725Z,5.60
2019-04-11T20:56:23.690Z,5.60
2019-04-11T20:58:40.999Z,5.50
2019-04-11T21:01:07.367Z,5.50
2019-04-11T21:03:33.586Z,5.50
2019-04-11T21:06:01.771Z,5.50
2019-04-11T21:08:27.875Z,5.30
2019-04-11T21:10:54.234Z,5.30
2019-04-11T21:13:20.451Z,5.30
2019-04-11T21:15:46.706Z,5.30
2019-04-11T21:18:13.307Z,5.40
2019-04-11T21:20:39.763Z,5.40
2019-04-11T21:23:06.106Z,5.40
2019-04-11T21:25:32.688Z,5.40
2019-04-11T21:27:59.740Z,5.30
2019-04-11T21:30:27.941Z,5.30
2019-04-11T21:35:40.356Z,5.20
2019-04-11T21:38:06.883Z,5.30
2019-04-11T21:40:35.678Z,5.20
2019-04-11T21:43:01.487Z,5.20
2019-04-11T21:45:27.755Z,5.10
2019-04-11T21:47:54.049Z,5.20
2019-04-11T21:50:21.343Z,5.20
2019-04-11T21:52:47.563Z,5.20
2019-04-11T21:55:16.066Z,5.20
2019-04-11T21:57:42.211Z,5.20
2019-04-11T22:00:15.038Z,5.10
2019-04-11T22:02:41.370Z,5.10
2019-04-11T22:05:08.035Z,5.20
2019-04-11T22:07:34.296Z,5.20
2019-04-11T22:10:00.520Z,5.10
2019-04-11T22:12:26.972Z,5.00
2019-04-11T22:14:53.206Z,5.00
2019-04-11T22:17:19.881Z,5.00
2019-04-11T22:19:46.566Z,5.10
2019-04-11T22:22:13.136Z,5.10
2019-04-11T22:24:39.814Z,5.10
2019-04-11T22:27:06.169Z,5.10
2019-04-11T22:29:32.411Z,5.20
2019-04-11T22:31:58.818Z,5.10
2019-04-11T22:34:42.039Z,5.00
2019-04-11T22:37:08.331Z,5.00
2019-04-11T22:39:34.628Z,5.00
2019-04-11T22:42:00.940Z,4.90
2019-04-11T22:44:27.349Z,5.00
2019-04-11T22:46:53.613Z,5.10
2019-04-11T22:49:19.921Z,5.00
2019-04-11T22:51:46.233Z,5.00
2019-04-11T22:54:13.167Z,4.90
2019-04-11T22:56:41.831Z,5.00
2019-04-11T22:59:08.290Z,5.00
2019-04-11T23:01:36.259Z,5.00
2019-04-11T23:04:02.830Z,5.00
2019-04-11T23:06:29.507Z,5.00
2019-04-11T23:08:55.762Z,4.90
2019-04-11T23:11:22.105Z,4.90
2019-04-11T23:13:48.349Z,4.90
2019-04-11T23:16:15.058Z,4.80
2019-04-11T23:18:43.846Z,4.80
2019-04-11T23:21:11.823Z,4.70
2019-04-11T23:23:38.353Z,4.80
2019-04-11T23:26:04.718Z,4.80
2019-04-11T23:28:30.979Z,4.70
2019-04-11T23:30:57.263Z,4.70
2019-04-11T23:33:23.948Z,4.80
2019-04-11T23:35:51.156Z,4.70
2019-04-11T23:38:18.040Z,4.60
2019-04-11T23:40:44.804Z,4.70
2019-04-11T23:43:11.095Z,4.50
2019-04-11T23:45:37.335Z,4.50
2019-04-11T23:48:04.074Z,4.60
2019-04-11T23:50:30.732Z,4.60
2019-04-11T23:52:58.043Z,4.50
2019-04-11T23:55:24.401Z,4.50
2019-04-11T23:57:50.681Z,4.50
